LIRS/GRS METAR and TAF weather

Enter ICAO airport designator
Station Type Date Time Source
LIRS METAR 2021/10/22 19:55 UTC NOAA

LIRS 221955Z 10003KT 9999 FEW020 17/15 Q1016


Station Type Date Time Source
LIRS Decoded METAR 2021/10/22 19:55 UTC NOAA

Grosseto, Italy (LIRS) 42-45N 011-04E 7M
Oct 22, 2021 - 03:55 PM EDT / 2021.10.22 1955 UTC
Wind: from the E (100 degrees) at 3 MPH (3 KT):0
Visibility: greater than 7 mile(s):0
Sky conditions: mostly clear
Temperature: 62 F (17 C)
Dew Point: 59 F (15 C)
Relative Humidity: 88%
Pressure (altimeter): 30.00 in. Hg (1016 hPa)
ob: LIRS 221955Z 10003KT 9999 FEW020 17/15 Q1016
cycle: 20

Station Type Date Time Source
LIRS TAF 2018/06/29 09:24 UTC NOAA

TAF TAF LIRS 290800Z 2909/2921 VRB03KT 9999 FEW030
BECMG 2911/2913 24015KT

Example: see airport list